• Join FlightAware (Why Join?)
  • Login
  • US Flag 
03:22AM EDT


 

Airport Tracker/Info


-or-


 

Live Flight TrackerFlight Track Log ✈ EGF2976 ✈ 25-Oct-2013 ✈ KMCI - KORD

Flight Track Log - Related Links

Times and Time Zones

All times are in EDT time to prevent confusion due to time zone crossing. See the EGF2976 flight status page for this flight to view local times or setup timezone preferences in your user account.

Time Position Orientation Groundspeed Altitude Reporting Facility
EDT Latitude Longitude Course Direction KTS MPH feet Rate Location/Type
08:30PM 39.2500 -94.7167 201° Southwest 153 176 3,400  Level Kansas City TRACON
08:31PM 39.2000 -94.6667 142° Southeast 294 338 5,800 2,400 Climbing Kansas City TRACON
08:32PM 39.4572 -94.3495 45° Northeast  Level Estimated
08:33PM 39.5101 -94.2276 43° Northeast  Level Estimated
08:33PM 39.2308 -94.5767 66° East 293 337 9,200  Level Kansas City Center
08:34PM 39.5629 -94.1056 38° Northeast  Level Estimated
08:34PM 39.3147 -94.5092 32° Northeast 330 380 10,600  Level Kansas City Center
08:35PM 39.6156 -93.9834 44° Northeast  Level Estimated
08:35PM 39.4022 -94.4375 32° Northeast 384 442 12,300  Level Kansas City Center
08:36PM 39.5081 -94.3517 32° Northeast 401 461 14,500 1,980 Climbing Kansas City Center
08:37PM 39.6006 -94.2750 33° Northeast 411 473 16,400 1,620 Climbing Kansas City Center
08:38PM 39.7122 -94.1828 32° Northeast 425 489 17,900 1,560 Climbing Kansas City Center
08:39PM 39.8094 -94.1031 32° Northeast 432 497 19,700 1,620 Climbing Kansas City Center
08:40PM 39.8597 -93.9481 67° East 453 521 21,300 1,380 Climbing Kansas City Center
08:41PM 39.9058 -93.7939 69° East 461 531 22,600 1,140 Climbing Kansas City Center
08:42PM 39.9536 -93.6353 69° East 469 540 23,700 1,020 Climbing Kansas City Center
08:43PM 40.0033 -93.4761 68° East 478 550 24,700 1,020 Climbing Kansas City Center
08:44PM 40.0603 -93.2792 69° East 485 558 25,900 1,020 Climbing Kansas City Center
08:45PM 40.1119 -93.1142 68° East 492 566 26,900 960 Climbing Kansas City Center
08:46PM 40.1619 -92.9494 68° East 494 568 27,900 1,020 Climbing Kansas City Center
08:47PM 40.2156 -92.7611 70° East 494 568 29,100 1,140 Climbing Kansas City Center
08:48PM 40.2619 -92.6019 69° East 492 566 30,300 1,080 Climbing Kansas City Center
08:49PM 40.3108 -92.4444 68° East 489 563 31,400 1,080 Climbing Kansas City Center
08:50PM 40.3597 -92.2689 70° East 489 563 32,600 1,080 Climbing Kansas City Center
08:51PM 40.4069 -92.1064 69° East 483 556 33,700 960 Climbing Kansas City Center
08:52PM 40.4533 -91.9419 70° East 483 556 34,700 600 Climbing Kansas City Center
08:53PM 40.5089 -91.7456 70° East 483 556 35,000 120 Climbing Kansas City Center
08:54PM 40.5547 -91.5828 70° East 481 554 35,000  Level Kansas City Center
08:55PM 40.6008 -91.4183 70° East 482 555 35,000  Level Kansas City Center
08:56PM 40.6478 -91.2481 70° East 484 557 35,000  Level Kansas City Center
08:57PM 40.6936 -91.0794 70° East 488 562 35,000  Level Kansas City Center
08:58PM 40.7233 -90.9783 69° East 490 564 35,000  Level Chicago Center
08:59PM 40.7686 -90.8119 70° East 484 557 35,000 -360 Level Chicago Center
09:00PM 40.8139 -90.6442 70° East 482 555 34,300 -600 Descending Chicago Center
09:01PM 40.8636 -90.4828 68° East 475 547 33,800 -1,080 Descending Chicago Center
09:02PM 40.9211 -90.3164 65° Northeast 487 560 32,100 -1,920 Descending Chicago Center
09:03PM 40.9853 -90.1244 66° East 509 586 29,900 -2,040 Descending Chicago Center
09:04PM 41.0364 -89.9689 66° East 507 583 28,000 -1,920 Descending Chicago Center
09:05PM 41.0906 -89.8008 67° East 494 568 26,000 -1,920 Descending Chicago Center
09:06PM 41.1572 -89.6008 66° East 490 564 24,100 -1,260 Descending Chicago Center
09:07PM 41.2228 -89.4378 62° Northeast 497 572 23,400 -1,320 Descending Chicago Center
09:08PM 41.2867 -89.2792 62° Northeast 489 563 21,400 -2,280 Descending Chicago Center
09:09PM 41.3500 -89.1208 62° Northeast 475 547 18,800 -2,280 Descending Chicago Center
09:10PM 41.4064 -88.9792 62° Northeast 443 510 16,700 -2,160 Descending Chicago Center
09:11PM 41.4569 -88.8494 62° Northeast 402 463 14,400 -2,220 Descending Chicago Center
09:12PM 41.5067 -88.7250 62° Northeast 385 443 12,200 -1,200 Descending Chicago Center
09:13PM 41.5669 -88.5808 61° Northeast 375 432 12,000 -600 Descending Chicago Center
09:14PM 41.6278 -88.4703 54° Northeast 371 427 11,000 -960 Descending Chicago Center
09:15PM 41.6861 -88.3625 54° Northeast 360 414 10,000 -540 Descending Chicago Center
09:16PM 41.7406 -88.2586 55° Northeast 343 395 9,900 -1,020 Descending Chicago Center
09:17PM 41.7881 -88.1711 54° Northeast 293 337 8,000 -1,440 Descending Chicago Center
09:18PM 41.8344 -88.0842 54° Northeast 288 331 7,000 -420 Descending Chicago Center
09:20PM 41.8833 -87.9333 66° East 296 341 7,000 -240 Level Chicago TRACON
09:21PM 41.8833 -87.8167 90° East 250 288 6,500 -1,200 Descending Chicago TRACON
09:22PM 41.8833 -87.7167 90° East 253 291 4,500 -1,260 Descending Chicago TRACON
09:23PM 41.9333 -87.7000 14° North 230 265 4,000 -900 Descending Chicago TRACON
09:24PM 41.9667 -87.7667 304° West 181 208 2,700 -1,080 Descending Chicago TRACON
09:25PM 41.9667 -87.8167 270° West 127 146 1,900 -720 Descending Chicago TRACON
09:26PM 41.9667 -87.8500 270° West 120 138 1,300 -600 Descending Chicago TRACON